createdAt,value
2019-04-16T00:01:00.939Z,100.0000
2019-04-16T00:02:10.012Z,100.0000
2019-04-16T00:03:20.349Z,100.0000
2019-04-16T00:04:31.949Z,100.0000
2019-04-16T00:05:40.299Z,100.0000
2019-04-16T00:06:48.275Z,100.0000
2019-04-16T00:07:56.964Z,100.0000
2019-04-16T00:09:05.919Z,100.0000
2019-04-16T00:10:14.959Z,100.0000
2019-04-16T00:11:23.294Z,100.0000
2019-04-16T00:12:32.940Z,100.0000
2019-04-16T00:13:41.292Z,100.0000
2019-04-16T00:14:50.902Z,100.0000
2019-04-16T00:15:59.944Z,100.0000
2019-04-16T00:17:09.013Z,100.0000
2019-04-16T00:18:18.744Z,100.0000
2019-04-16T00:19:26.891Z,100.0000
2019-04-16T00:20:37.933Z,100.0000
2019-04-16T00:21:46.987Z,100.0000
2019-04-16T00:22:56.016Z,100.0000
2019-04-16T00:24:04.796Z,100.0000
2019-04-16T00:25:13.975Z,100.0000
2019-04-16T00:26:26.580Z,100.0000
2019-04-16T00:27:35.734Z,100.0000
2019-04-16T00:28:44.285Z,100.0000
2019-04-16T00:29:53.005Z,100.0000
2019-04-16T00:31:01.277Z,100.0000
2019-04-16T00:32:10.011Z,100.0000
2019-04-16T00:33:18.920Z,100.0000
2019-04-16T00:34:27.901Z,100.0000
2019-04-16T00:35:36.951Z,100.0000
2019-04-16T00:36:48.419Z,100.0000
2019-04-16T00:37:58.415Z,100.0000
2019-04-16T00:39:06.953Z,100.0000
2019-04-16T00:40:15.910Z,100.0000
2019-04-16T00:41:25.057Z,100.0000
2019-04-16T00:42:34.002Z,100.0000
2019-04-16T00:43:44.083Z,100.0000
2019-04-16T00:44:54.006Z,100.0000
2019-04-16T00:46:03.110Z,100.0000
2019-04-16T00:47:11.967Z,100.0000
2019-04-16T00:48:20.907Z,100.0000
2019-04-16T00:49:31.003Z,100.0000
2019-04-16T00:50:39.301Z,100.0000
2019-04-16T00:51:47.967Z,100.0000
2019-04-16T00:52:56.293Z,100.0000
2019-04-16T00:54:09.891Z,100.0000
2019-04-16T00:55:18.295Z,100.0000
2019-04-16T00:56:26.888Z,100.0000
2019-04-16T00:57:35.950Z,100.0000
2019-04-16T00:58:44.973Z,100.0000
2019-04-16T00:59:56.283Z,100.0000
2019-04-16T01:01:05.264Z,100.0000
2019-04-16T01:02:12.921Z,100.0000
2019-04-16T01:03:21.991Z,100.0000
2019-04-16T01:04:30.968Z,100.0000
2019-04-16T01:05:40.301Z,100.0000
2019-04-16T01:06:48.871Z,100.0000
2019-04-16T01:07:57.297Z,100.0000
2019-04-16T01:09:05.988Z,100.0000
2019-04-16T01:10:13.314Z,100.0000
2019-04-16T01:11:21.971Z,100.0000
2019-04-16T01:12:30.267Z,100.0000
2019-04-16T01:13:38.910Z,100.0000
2019-04-16T01:14:47.973Z,100.0000
2019-04-16T01:15:57.194Z,100.0000
2019-04-16T01:17:05.982Z,100.0000
2019-04-16T01:18:14.302Z,100.0000
2019-04-16T01:19:23.028Z,100.0000
2019-04-16T01:20:31.906Z,100.0000
2019-04-16T01:21:44.517Z,100.0000
2019-04-16T01:22:54.081Z,100.0000
2019-04-16T01:24:02.931Z,100.0000
2019-04-16T01:25:11.970Z,100.0000
2019-04-16T01:26:21.220Z,100.0000
2019-04-16T01:27:29.606Z,100.0000
2019-04-16T01:28:38.016Z,100.0000
2019-04-16T01:29:46.960Z,100.0000
2019-04-16T01:30:55.998Z,100.0000
2019-04-16T01:32:10.292Z,100.0000
2019-04-16T01:33:18.292Z,100.0000
2019-04-16T01:34:26.945Z,100.0000
2019-04-16T01:35:35.306Z,100.0000
2019-04-16T01:36:44.342Z,100.0000
2019-04-16T01:37:56.538Z,100.0000
2019-04-16T01:39:16.087Z,100.0000
2019-04-16T01:40:19.354Z,100.0000
2019-04-16T01:41:27.990Z,100.0000
2019-04-16T01:42:36.952Z,100.0000
2019-04-16T01:43:45.991Z,100.0000
2019-04-16T01:44:54.056Z,100.0000
2019-04-16T01:46:02.609Z,100.0000
2019-04-16T01:47:11.871Z,100.0000
2019-04-16T01:48:19.318Z,100.0000
2019-04-16T01:49:27.933Z,100.0000
2019-04-16T01:50:36.278Z,100.0000
2019-04-16T01:51:47.445Z,100.0000
2019-04-16T01:52:57.265Z,100.0000
2019-04-16T01:54:05.928Z,100.0000
2019-04-16T01:55:15.057Z,100.0000
2019-04-16T01:56:27.976Z,100.0000
2019-04-16T01:57:36.281Z,100.0000
2019-04-16T01:58:44.335Z,100.0000
2019-04-16T01:59:53.887Z,100.0000
2019-04-16T02:01:02.364Z,100.0000
2019-04-16T02:02:14.579Z,100.0000
2019-04-16T02:03:24.979Z,100.0000
2019-04-16T02:04:33.781Z,100.0000
2019-04-16T02:05:42.982Z,100.0000
2019-04-16T02:06:54.308Z,100.0000
2019-04-16T02:08:05.329Z,100.0000
2019-04-16T02:09:22.501Z,100.0000
2019-04-16T02:10:26.908Z,100.0000
2019-04-16T02:11:38.816Z,100.0000
2019-04-16T02:12:50.953Z,100.0000
2019-04-16T02:13:59.977Z,100.0000
2019-04-16T02:15:09.094Z,100.0000
2019-04-16T02:16:17.968Z,100.0000
2019-04-16T02:17:27.054Z,100.0000
2019-04-16T02:18:36.917Z,100.0000
2019-04-16T02:19:45.262Z,100.0000
2019-04-16T02:20:52.846Z,100.0000
2019-04-16T02:22:02.015Z,100.0000
2019-04-16T02:23:13.581Z,100.0000
2019-04-16T02:24:24.297Z,100.0000
2019-04-16T02:25:33.947Z,100.0000
2019-04-16T02:26:42.972Z,100.0000
2019-04-16T02:27:54.222Z,100.0000
2019-04-16T02:29:04.965Z,100.0000
2019-04-16T02:30:13.018Z,100.0000
2019-04-16T02:31:21.294Z,100.0000
2019-04-16T02:32:30.043Z,100.0000
2019-04-16T02:33:38.979Z,100.0000
2019-04-16T02:34:47.299Z,100.0000
2019-04-16T02:35:55.978Z,100.0000
2019-04-16T02:37:04.937Z,100.0000
2019-04-16T02:38:14.182Z,100.0000
2019-04-16T02:39:46.288Z,100.0000
2019-04-16T02:40:36.905Z,100.0000
2019-04-16T02:41:45.965Z,100.0000
2019-04-16T02:42:54.969Z,100.0000
2019-04-16T02:44:04.026Z,100.0000
2019-04-16T02:45:13.168Z,100.0000
2019-04-16T02:46:22.066Z,100.0000
2019-04-16T02:47:30.982Z,100.0000
2019-04-16T02:48:38.935Z,100.0000
2019-04-16T02:49:47.298Z,100.0000
2019-04-16T02:50:55.311Z,100.0000
2019-04-16T02:52:04.017Z,100.0000
2019-04-16T02:53:13.113Z,100.0000
2019-04-16T02:54:21.929Z,100.0000
2019-04-16T02:55:30.919Z,100.0000
2019-04-16T02:56:39.398Z,100.0000
2019-04-16T02:57:48.046Z,100.0000
2019-04-16T02:58:56.299Z,100.0000
2019-04-16T03:00:05.384Z,100.0000
2019-04-16T03:01:13.295Z,100.0000
2019-04-16T03:02:23.091Z,100.0000
2019-04-16T03:03:32.635Z,100.0000
2019-04-16T03:04:41.857Z,100.0000
2019-04-16T03:05:50.996Z,100.0000
2019-04-16T03:07:02.784Z,100.0000
2019-04-16T03:08:12.265Z,100.0000
2019-04-16T03:09:21.000Z,100.0000
2019-04-16T03:10:29.357Z,100.0000
2019-04-16T03:11:37.383Z,100.0000
2019-04-16T03:12:46.131Z,100.0000
2019-04-16T03:13:58.288Z,100.0000
2019-04-16T03:15:07.294Z,100.0000
2019-04-16T03:16:14.919Z,100.0000
2019-04-16T03:17:24.182Z,100.0000
2019-04-16T03:18:33.168Z,100.0000
2019-04-16T03:19:41.290Z,100.0000
2019-04-16T03:20:52.474Z,100.0000
2019-04-16T03:22:03.736Z,100.0000
2019-04-16T03:23:12.283Z,100.0000
2019-04-16T03:24:20.950Z,100.0000
2019-04-16T03:25:30.034Z,100.0000
2019-04-16T03:26:38.913Z,100.0000
2019-04-16T03:27:47.932Z,100.0000
2019-04-16T03:28:59.133Z,100.0000
2019-04-16T03:30:07.365Z,100.0000
2019-04-16T03:31:22.287Z,100.0000
2019-04-16T03:32:35.308Z,100.0000
2019-04-16T03:33:50.308Z,100.0000
2019-04-16T03:34:57.278Z,100.0000
2019-04-16T03:36:06.090Z,100.0000
2019-04-16T03:37:14.297Z,100.0000
2019-04-16T03:38:23.203Z,100.0000
2019-04-16T03:39:32.466Z,100.0000
2019-04-16T03:40:39.917Z,100.0000
2019-04-16T03:41:48.288Z,100.0000
2019-04-16T03:42:59.005Z,100.0000
2019-04-16T03:44:09.002Z,100.0000
2019-04-16T03:45:17.276Z,100.0000
2019-04-16T03:46:26.258Z,100.0000
2019-04-16T03:47:35.014Z,100.0000
2019-04-16T03:48:44.020Z,100.0000
2019-04-16T03:49:56.400Z,100.0000
2019-04-16T03:51:06.476Z,100.0000
2019-04-16T03:52:15.163Z,100.0000
2019-04-16T03:53:25.086Z,100.0000
2019-04-16T03:54:34.998Z,100.0000
2019-04-16T03:55:43.933Z,100.0000
2019-04-16T03:56:52.253Z,100.0000
2019-04-16T03:58:05.171Z,100.0000
2019-04-16T03:59:13.887Z,100.0000
2019-04-16T04:00:22.309Z,100.0000
2019-04-16T04:01:30.977Z,100.0000
2019-04-16T04:02:39.881Z,100.0000
2019-04-16T04:03:48.288Z,100.0000
2019-04-16T04:04:57.628Z,100.0000
2019-04-16T04:06:09.402Z,100.0000
2019-04-16T04:07:18.290Z,100.0000
2019-04-16T04:08:27.008Z,100.0000
2019-04-16T04:09:36.005Z,100.0000
2019-04-16T04:10:44.999Z,100.0000
2019-04-16T04:11:53.986Z,100.0000
2019-04-16T04:13:04.921Z,100.0000
2019-04-16T04:14:13.284Z,100.0000
2019-04-16T04:15:25.924Z,100.0000
2019-04-16T04:16:35.948Z,100.0000
2019-04-16T04:17:45.310Z,100.0000
2019-04-16T04:18:53.905Z,100.0000
2019-04-16T04:20:02.930Z,100.0000
2019-04-16T04:21:11.993Z,100.0000
2019-04-16T04:22:22.720Z,100.0000
2019-04-16T04:23:34.291Z,100.0000
2019-04-16T04:24:43.055Z,100.0000
2019-04-16T04:25:51.285Z,100.0000
2019-04-16T04:26:59.273Z,100.0000
2019-04-16T04:28:08.249Z,100.0000
2019-04-16T04:29:16.957Z,100.0000
2019-04-16T04:30:28.906Z,100.0000
2019-04-16T04:31:38.964Z,100.0000
2019-04-16T04:32:51.013Z,100.0000
2019-04-16T04:34:00.013Z,100.0000
2019-04-16T04:35:09.193Z,100.0000
2019-04-16T04:36:19.602Z,100.0000
2019-04-16T04:37:30.904Z,100.0000
2019-04-16T04:38:40.309Z,100.0000
2019-04-16T04:39:48.313Z,100.0000
2019-04-16T04:40:59.623Z,100.0000
2019-04-16T04:42:09.009Z,100.0000
2019-04-16T04:43:17.281Z,100.0000
2019-04-16T04:44:25.961Z,100.0000
2019-04-16T04:45:37.634Z,100.0000
2019-04-16T04:46:48.965Z,100.0000
2019-04-16T04:47:58.065Z,100.0000
2019-04-16T04:49:07.204Z,100.0000
2019-04-16T04:50:15.946Z,100.0000
2019-04-16T04:51:24.295Z,100.0000
2019-04-16T04:52:32.941Z,100.0000
2019-04-16T04:53:41.940Z,100.0000
2019-04-16T04:54:51.409Z,100.0000
2019-04-16T04:56:03.963Z,100.0000
2019-04-16T04:57:12.953Z,100.0000
2019-04-16T04:58:21.918Z,100.0000
2019-04-16T04:59:30.398Z,100.0000
2019-04-16T05:00:40.425Z,100.0000
2019-04-16T05:01:49.340Z,100.0000
2019-04-16T05:02:57.267Z,100.0000
2019-04-16T05:04:05.681Z,100.0000
2019-04-16T05:05:15.254Z,100.0000
2019-04-16T05:06:26.735Z,100.0000
2019-04-16T05:07:36.464Z,100.0000
2019-04-16T05:08:45.008Z,100.0000
2019-04-16T05:09:53.955Z,100.0000
2019-04-16T05:11:03.209Z,100.0000
2019-04-16T05:12:11.931Z,100.0000
2019-04-16T05:13:23.958Z,100.0000
2019-04-16T05:14:33.945Z,100.0000
2019-04-16T05:15:43.241Z,100.0000
2019-04-16T05:16:51.384Z,100.0000
2019-04-16T05:18:00.053Z,100.0000
2019-04-16T05:19:13.839Z,100.0000
2019-04-16T05:20:22.392Z,100.0000
2019-04-16T05:21:31.147Z,100.0000
2019-04-16T05:22:40.985Z,100.0000
2019-04-16T05:23:50.007Z,100.0000
2019-04-16T05:25:01.344Z,100.0000
2019-04-16T05:26:11.797Z,100.0000
2019-04-16T05:27:21.165Z,100.0000
2019-04-16T05:28:30.011Z,100.0000
2019-04-16T05:29:38.302Z,100.0000
2019-04-16T05:30:51.860Z,100.0000
2019-04-16T05:32:00.278Z,100.0000
2019-04-16T05:33:08.268Z,100.0000
2019-04-16T05:34:18.815Z,100.0000
2019-04-16T05:35:28.233Z,100.0000
2019-04-16T05:36:36.390Z,100.0000
2019-04-16T05:37:43.929Z,100.0000
2019-04-16T05:38:55.445Z,100.0000
2019-04-16T05:40:05.932Z,100.0000
2019-04-16T05:41:20.264Z,100.0000
2019-04-16T05:42:27.307Z,100.0000
2019-04-16T05:43:36.231Z,100.0000
2019-04-16T05:44:44.273Z,100.0000
2019-04-16T05:45:52.336Z,100.0000
2019-04-16T05:47:01.145Z,100.0000
2019-04-16T05:48:11.186Z,100.0000
2019-04-16T05:49:24.855Z,100.0000
2019-04-16T05:50:33.293Z,100.0000
2019-04-16T05:51:42.668Z,100.0000
2019-04-16T05:52:52.168Z,100.0000
2019-04-16T05:54:00.370Z,100.0000
2019-04-16T05:55:09.063Z,100.0000
2019-04-16T05:56:22.641Z,100.0000
2019-04-16T05:57:31.371Z,100.0000
2019-04-16T05:58:39.910Z,100.0000
2019-04-16T05:59:49.029Z,100.0000
2019-04-16T06:00:57.988Z,100.0000
2019-04-16T06:02:07.137Z,100.0000
2019-04-16T06:03:20.669Z,100.0000
2019-04-16T06:04:30.023Z,100.0000
2019-04-16T06:05:37.972Z,100.0000
2019-04-16T06:06:47.159Z,100.0000
2019-04-16T06:07:55.576Z,100.0000
2019-04-16T06:09:02.755Z,100.0000
2019-04-16T06:10:17.057Z,100.0000
2019-04-16T06:11:29.224Z,100.0000
2019-04-16T06:12:40.167Z,100.0000
2019-04-16T06:13:48.948Z,100.0000
2019-04-16T06:14:57.997Z,99.1623
2019-04-16T06:16:06.925Z,98.2879
2019-04-16T06:17:15.965Z,97.8561
2019-04-16T06:18:24.894Z,97.8515
2019-04-16T06:19:34.441Z,98.1781
2019-04-16T06:20:43.059Z,97.9248
2019-04-16T06:24:08.376Z,96.6476
2019-04-16T06:24:08.376Z,97.8164
2019-04-16T06:25:18.183Z,96.4477
2019-04-16T06:26:27.958Z,96.4691
2019-04-16T06:27:38.668Z,96.3973
2019-04-16T06:28:48.333Z,95.7931
2019-04-16T06:30:01.210Z,95.5032
2019-04-16T06:31:11.337Z,94.9874
2019-04-16T06:32:22.154Z,95.9060
2019-04-16T06:33:31.674Z,94.8684
2019-04-16T06:34:41.933Z,95.0515
2019-04-16T06:35:51.835Z,94.7982
2019-04-16T06:37:01.958Z,94.1039
2019-04-16T06:38:12.053Z,94.0948
2019-04-16T06:39:22.045Z,94.5205
2019-04-16T06:40:32.852Z,94.3313
2019-04-16T06:41:47.665Z,94.8959
2019-04-16T06:42:58.001Z,95.4864
2019-04-16T06:44:09.878Z,96.7178
2019-04-16T06:45:20.499Z,96.5805
2019-04-16T06:46:29.755Z,96.6491
2019-04-16T06:47:41.782Z,95.6542
2019-04-16T06:48:51.290Z,97.3709
2019-04-16T06:50:00.306Z,96.1349
2019-04-16T06:51:12.507Z,95.8251
2019-04-16T06:52:21.909Z,95.0957
2019-04-16T06:53:32.317Z,95.4070
2019-04-16T06:54:45.310Z,95.0408
2019-04-16T06:55:56.786Z,94.7448
2019-04-16T06:57:05.949Z,94.4976
2019-04-16T06:58:16.428Z,92.8359
2019-04-16T06:59:29.337Z,90.6142
2019-04-16T07:00:40.005Z,93.0220
2019-04-16T07:01:50.068Z,91.1589
2019-04-16T07:03:02.468Z,93.2158
2019-04-16T07:04:13.005Z,91.3924
2019-04-16T07:05:33.266Z,92.2209
2019-04-16T07:06:43.730Z,91.4900
2019-04-16T07:07:54.237Z,90.0877
2019-04-16T07:09:04.390Z,90.4738
2019-04-16T07:10:15.047Z,88.5039
2019-04-16T07:11:26.161Z,89.0227
2019-04-16T07:13:58.362Z,88.3803
2019-04-16T07:15:07.699Z,89.8131
2019-04-16T07:16:16.330Z,85.4292
2019-04-16T07:17:26.052Z,86.7323
2019-04-16T07:18:38.579Z,85.0629
2019-04-16T07:19:48.289Z,87.4205
2019-04-16T07:20:57.355Z,86.7140
2019-04-16T07:22:07.040Z,87.0085
2019-04-16T07:23:17.767Z,85.4185
2019-04-16T07:24:30.807Z,84.3259
2019-04-16T07:25:44.144Z,85.1499
2019-04-16T07:26:56.618Z,85.7572
2019-04-16T07:28:09.272Z,84.3351
2019-04-16T07:29:24.307Z,84.6540
2019-04-16T07:30:38.419Z,84.2069
2019-04-16T07:31:53.251Z,85.3269
2019-04-16T07:33:05.524Z,84.9165
2019-04-16T07:34:14.289Z,86.7323
2019-04-16T07:35:27.889Z,87.1504
2019-04-16T07:36:42.101Z,86.1067
2019-04-16T07:37:53.018Z,86.3523
2019-04-16T07:39:07.631Z,87.0497
2019-04-16T07:40:16.369Z,86.5690
2019-04-16T07:41:27.295Z,86.1921
2019-04-16T07:42:51.692Z,85.6519
2019-04-16T07:43:57.218Z,85.2323
2019-04-16T07:45:11.431Z,86.6377
2019-04-16T07:46:21.392Z,86.1006
2019-04-16T07:47:32.966Z,86.0594
2019-04-16T07:48:45.984Z,87.1534
2019-04-16T07:49:59.855Z,85.2094
2019-04-16T07:51:10.360Z,85.8717
2019-04-16T07:52:21.334Z,86.6728
2019-04-16T07:53:31.538Z,85.0904
2019-04-16T07:54:40.311Z,82.7451
2019-04-16T07:55:49.431Z,82.8107
2019-04-16T07:56:58.314Z,83.0838
2019-04-16T07:58:08.365Z,84.0009
2019-04-16T07:59:19.026Z,82.7787
2019-04-16T08:00:29.119Z,83.5019
2019-04-16T08:01:39.932Z,81.4099
2019-04-16T08:02:53.867Z,79.8062
2019-04-16T08:04:03.612Z,79.5315
2019-04-16T08:05:12.328Z,79.1669
2019-04-16T08:06:21.334Z,78.5214
2019-04-16T08:07:32.251Z,79.0417
2019-04-16T08:08:42.646Z,80.5524
2019-04-16T08:09:51.302Z,77.5036
2019-04-16T08:12:33.326Z,78.3246
2019-04-16T08:13:45.764Z,77.2122
2019-04-16T08:14:54.362Z,78.9136
2019-04-16T08:16:04.317Z,79.8260
2019-04-16T08:17:14.031Z,78.4100
2019-04-16T08:19:44.797Z,80.5585
2019-04-16T08:21:01.701Z,78.2956
2019-04-16T08:22:15.530Z,77.6272
2019-04-16T08:23:25.077Z,76.5805
2019-04-16T08:24:34.393Z,76.8444
2019-04-16T08:25:44.761Z,77.3434
2019-04-16T08:26:56.254Z,77.4350
2019-04-16T08:28:09.443Z,77.2015
2019-04-16T08:29:18.501Z,75.7931
2019-04-16T08:30:27.391Z,76.2966
2019-04-16T08:33:05.481Z,78.0453
2019-04-16T08:35:39.339Z,77.3724
2019-04-16T08:38:20.674Z,73.8460
2019-04-16T08:39:29.375Z,74.8882
2019-04-16T08:42:06.817Z,76.9131
2019-04-16T08:43:22.356Z,76.6522
2019-04-16T08:44:35.796Z,74.1436
2019-04-16T08:49:54.081Z,71.5114
2019-04-16T08:52:26.290Z,71.3878
2019-04-16T08:54:55.400Z,70.6874
2019-04-16T08:56:05.020Z,72.5093
2019-04-16T08:57:18.041Z,71.4000
2019-04-16T08:59:54.858Z,71.9738
2019-04-16T09:01:04.296Z,73.7621
2019-04-16T09:02:13.816Z,74.3084
2019-04-16T09:03:26.716Z,71.0384
2019-04-16T09:04:37.311Z,71.6487
2019-04-16T09:05:46.293Z,71.1620
2019-04-16T09:07:09.634Z,72.7001
2019-04-16T09:08:13.943Z,73.2189
2019-04-16T09:09:25.555Z,69.9535
2019-04-16T09:10:34.390Z,70.9758
2019-04-16T09:11:44.194Z,71.8853
2019-04-16T09:13:03.319Z,67.3548
2019-04-16T09:14:16.841Z,69.4743
2019-04-16T09:15:29.343Z,70.6584
2019-04-16T09:16:45.219Z,71.8914
2019-04-16T09:17:57.093Z,71.2551
2019-04-16T09:19:08.593Z,69.0486
2019-04-16T09:20:17.272Z,70.8797
2019-04-16T09:21:31.255Z,69.8360
2019-04-16T09:24:08.862Z,71.8914
2019-04-16T09:25:22.987Z,69.8772
2019-04-16T09:26:36.437Z,65.5558
2019-04-16T09:30:30.925Z,65.6413
2019-04-16T09:33:01.886Z,64.2863
2019-04-16T09:34:10.481Z,66.0731
2019-04-16T09:35:20.752Z,64.2328
2019-04-16T09:40:36.588Z,66.6163
2019-04-16T09:42:01.755Z,66.1280
2019-04-16T09:43:17.441Z,62.0981
2019-04-16T09:47:16.733Z,61.2985
2019-04-16T09:52:38.562Z,59.8978
2019-04-16T09:55:19.634Z,63.9719
2019-04-16T09:56:30.116Z,60.1755
2019-04-16T09:57:39.994Z,63.7095
2019-04-16T10:03:01.356Z,63.5462
2019-04-16T10:04:15.655Z,58.6694
2019-04-16T10:09:37.586Z,66.0685
2019-04-16T10:13:35.747Z,61.0330
2019-04-16T10:14:48.576Z,59.6918
2019-04-16T10:15:57.403Z,57.9004
2019-04-16T10:17:06.341Z,61.0193
2019-04-16T10:19:56.724Z,57.7356
2019-04-16T10:21:08.474Z,56.3027
2019-04-16T10:22:17.310Z,57.1374
2019-04-16T10:23:29.673Z,56.7483
2019-04-16T10:24:59.775Z,56.1837
2019-04-16T10:26:08.348Z,58.2086
2019-04-16T10:28:39.346Z,57.9370
2019-04-16T10:31:14.699Z,56.1151
2019-04-16T10:38:16.410Z,51.3680
2019-04-16T10:39:26.358Z,53.6171
2019-04-16T10:40:39.933Z,56.9223
2019-04-16T10:43:09.336Z,59.1180
2019-04-16T10:45:51.170Z,52.1141
2019-04-16T10:47:01.492Z,52.7932
2019-04-16T10:49:30.473Z,53.0022
2019-04-16T10:52:04.855Z,53.1807
2019-04-16T10:54:39.817Z,55.6664
2019-04-16T10:55:50.557Z,53.1594
2019-04-16T10:56:59.313Z,51.1208
2019-04-16T10:58:10.147Z,50.6905
2019-04-16T10:59:23.027Z,49.2454
2019-04-16T11:00:39.373Z,54.3404
2019-04-16T11:04:35.953Z,50.3929
2019-04-16T11:05:45.372Z,54.2016
2019-04-16T11:06:58.927Z,53.2128
2019-04-16T11:08:09.431Z,51.5206
2019-04-16T11:09:22.097Z,54.5235
2019-04-16T11:10:31.345Z,52.9351
2019-04-16T11:11:44.898Z,50.3059
2019-04-16T11:12:54.317Z,55.0317
2019-04-16T11:14:03.376Z,51.6426
2019-04-16T11:15:35.246Z,51.7159
2019-04-16T11:16:45.032Z,51.6945
2019-04-16T11:19:24.561Z,55.1690
2019-04-16T11:20:34.643Z,55.1080
2019-04-16T11:21:44.713Z,53.0907
2019-04-16T11:22:56.041Z,51.5160
2019-04-16T11:24:08.191Z,53.7209
2019-04-16T11:25:21.218Z,52.3064
2019-04-16T11:26:32.950Z,53.1167
2019-04-16T11:27:42.445Z,53.0800
2019-04-16T11:31:35.345Z,57.6623
2019-04-16T11:32:43.667Z,53.3043
2019-04-16T11:39:29.250Z,52.1828
2019-04-16T11:42:13.101Z,51.4000
2019-04-16T11:43:25.747Z,51.5969
2019-04-16T11:44:38.178Z,49.6986
2019-04-16T11:45:48.136Z,52.8252
2019-04-16T11:46:58.409Z,50.8247
2019-04-16T11:48:07.381Z,51.9966
2019-04-16T11:49:18.294Z,49.6437
2019-04-16T11:50:29.650Z,50.3029
2019-04-16T11:51:38.250Z,47.2313
2019-04-16T11:52:48.364Z,50.9514
2019-04-16T11:54:00.699Z,54.7829
2019-04-16T11:55:10.067Z,54.9584
2019-04-16T11:56:22.497Z,56.5042
2019-04-16T11:57:37.069Z,52.5322
2019-04-16T11:58:47.541Z,56.0388
2019-04-16T12:00:06.714Z,54.4259
2019-04-16T12:01:11.354Z,54.8852
2019-04-16T12:02:20.557Z,55.3246
2019-04-16T12:03:34.928Z,55.3414
2019-04-16T12:04:55.856Z,57.2747
2019-04-16T12:06:10.623Z,53.4142
2019-04-16T12:07:20.003Z,54.3816
2019-04-16T12:08:30.004Z,54.9111
2019-04-16T12:09:39.358Z,55.1583
2019-04-16T12:10:49.381Z,58.7930
2019-04-16T12:12:00.281Z,57.6822
2019-04-16T12:13:09.909Z,56.3455
2019-04-16T12:14:30.775Z,53.1487
2019-04-16T12:15:36.541Z,56.6705
2019-04-16T12:16:46.101Z,57.0138
2019-04-16T12:17:55.487Z,55.9243
2019-04-16T12:19:05.243Z,55.2041
2019-04-16T12:20:14.386Z,52.5215
2019-04-16T12:21:24.244Z,54.9889
2019-04-16T12:22:36.962Z,53.7118
2019-04-16T12:23:47.090Z,53.5668
2019-04-16T12:24:57.530Z,54.8379
2019-04-16T12:26:09.404Z,57.6181
2019-04-16T12:27:19.747Z,55.7626
2019-04-16T12:28:30.123Z,55.2956
2019-04-16T12:29:41.435Z,56.4996
2019-04-16T12:30:51.365Z,58.3673
2019-04-16T12:32:03.588Z,56.7071
2019-04-16T12:33:15.198Z,58.1537
2019-04-16T12:34:25.736Z,60.5432
2019-04-16T12:35:35.657Z,52.3934
2019-04-16T12:36:46.859Z,54.6319
2019-04-16T12:37:58.433Z,54.5327
2019-04-16T12:39:10.140Z,57.0809
2019-04-16T12:40:21.172Z,55.5703
2019-04-16T12:41:30.298Z,51.9585
2019-04-16T12:42:42.875Z,58.3780
2019-04-16T12:43:51.789Z,53.9178
